Time;durP1;ratioP1;P1;durP2;ratioP2;P2;SDS_P1;SDS_P2;PMS_P1;PMS_P2;Temp;Humidity;BMP_temperature;BMP_pressure;BME280_temperature;BME280_humidity;BME280_pressure;Samples;Min_cycle;Max_cycle;Signal;HPM_P1;HPM_P2
2023/09/01 00:02:06;;;;;;;9.93;3.08;;;;;;;18.16;100.00;97616.03;5026238;28;20025;-76
2023/09/01 00:04:32;;;;;;;9.15;3.25;;;;;;;18.08;100.00;97617.72;5046627;28;20441;-77
2023/09/01 00:06:59;;;;;;;4.55;3.03;;;;;;;17.97;100.00;97615.13;5029486;28;20091;-75
2023/09/01 00:09:24;;;;;;;7.57;3.00;;;;;;;17.95;100.00;97620.69;5029229;28;20035;-76
2023/09/01 00:11:50;;;;;;;6.03;2.92;;;;;;;17.99;100.00;97616.72;5045774;28;20104;-75
2023/09/01 00:14:15;;;;;;;8.00;3.10;;;;;;;17.86;100.00;97618.81;5047341;28;20025;-77
2023/09/01 00:16:41;;;;;;;7.22;3.33;;;;;;;17.77;100.00;97628.63;5045945;28;20028;-76
2023/09/01 00:19:06;;;;;;;7.03;3.60;;;;;;;17.81;100.00;97627.31;5047099;28;20492;-76
2023/09/01 00:21:32;;;;;;;8.20;3.35;;;;;;;17.70;100.00;97622.03;5045717;28;20025;-75
2023/09/01 00:23:57;;;;;;;6.65;3.60;;;;;;;17.55;100.00;97628.81;5040205;28;20155;-74
2023/09/01 00:26:23;;;;;;;11.13;3.60;;;;;;;17.52;100.00;97623.63;5040719;28;20029;-76
2023/09/01 00:28:48;;;;;;;5.22;3.25;;;;;;;17.61;100.00;97639.09;5032651;28;20021;-76
2023/09/01 00:31:16;;;;;;;6.05;3.47;;;;;;;17.58;100.00;97622.28;5027247;28;20400;-76
2023/09/01 00:33:41;;;;;;;9.50;3.55;;;;;;;17.54;100.00;97627.06;5009096;28;20110;-76
2023/09/01 00:36:07;;;;;;;9.23;3.05;;;;;;;17.61;100.00;97636.38;5025930;28;20037;-76
2023/09/01 00:38:32;;;;;;;10.73;3.63;;;;;;;17.54;100.00;97637.88;5025976;28;20059;-76
2023/09/01 00:40:58;;;;;;;5.07;2.90;;;;;;;17.47;100.00;97636.72;5025664;28;20053;-76
2023/09/01 00:43:25;;;;;;;8.52;3.85;;;;;;;17.48;100.00;97642.97;5034727;28;20059;-76
2023/09/01 00:45:50;;;;;;;7.72;3.50;;;;;;;17.51;100.00;97646.25;5050169;28;20028;-76
2023/09/01 00:48:16;;;;;;;5.32;3.25;;;;;;;17.56;100.00;97649.47;5049061;28;20025;-75
2023/09/01 00:50:43;;;;;;;5.75;3.55;;;;;;;17.44;100.00;97642.41;5049033;28;20510;-75
2023/09/01 00:53:09;;;;;;;6.22;3.45;;;;;;;17.48;100.00;97637.56;5048920;28;20036;-75
2023/09/01 00:55:35;;;;;;;8.52;3.47;;;;;;;17.45;100.00;97640.53;5048629;28;20039;-75
2023/09/01 00:58:02;;;;;;;7.93;3.92;;;;;;;17.53;100.00;97633.47;5013536;28;20033;-76
2023/09/01 01:00:28;;;;;;;8.57;3.60;;;;;;;17.50;100.00;97639.16;5021309;28;20084;-76
2023/09/01 01:02:55;;;;;;;6.10;3.45;;;;;;;17.54;100.00;97653.25;5036359;28;20018;-76
2023/09/01 01:05:26;;;;;;;9.27;3.80;;;;;;;17.45;100.00;97663.03;5029168;28;20045;-76
2023/09/01 01:08:11;;;;;;;8.80;3.83;;;;;;;17.33;100.00;97648.75;5028818;28;20032;-76
2023/09/01 01:10:59;;;;;;;9.27;3.38;;;;;;;17.25;100.00;97651.28;5034266;28;20037;-75
2023/09/01 01:13:27;;;;;;;9.40;4.47;;;;;;;17.21;100.00;97646.25;5028947;28;20409;-76
2023/09/01 01:15:55;;;;;;;10.45;3.67;;;;;;;17.17;100.00;97647.50;5028768;28;20055;-77
2023/09/01 01:18:21;;;;;;;6.30;3.80;;;;;;;17.13;100.00;97657.75;5028832;28;20051;-77
2023/09/01 01:20:52;;;;;;;5.07;3.47;;;;;;;17.12;100.00;97652.47;5019848;28;20025;-77
2023/09/01 01:23:19;;;;;;;5.18;3.33;;;;;;;17.06;100.00;97647.59;5032151;28;20036;-77
2023/09/01 01:25:46;;;;;;;7.82;3.67;;;;;;;17.06;100.00;97648.44;5048596;28;20467;-77
2023/09/01 01:28:12;;;;;;;6.32;3.92;;;;;;;17.15;100.00;97649.50;5034646;28;20068;-78
2023/09/01 01:30:38;;;;;;;9.48;3.80;;;;;;;17.15;100.00;97652.19;5044984;28;20053;-76
2023/09/01 01:33:04;;;;;;;4.53;3.20;;;;;;;17.10;100.00;97652.56;5027854;28;20106;-77
2023/09/01 01:35:59;;;;;;;4.82;3.13;;;;;;;16.94;100.00;97643.25;5019981;28;20060;-77
2023/09/01 01:38:27;;;;;;;19.60;3.60;;;;;;;16.96;100.00;97649.34;5025083;28;20035;-76
2023/09/01 01:40:59;;;;;;;7.55;3.63;;;;;;;16.97;100.00;97648.38;5011823;28;20116;-76
2023/09/01 01:43:26;;;;;;;9.82;4.18;;;;;;;16.88;100.00;97638.38;5028459;28;20021;-76
2023/09/01 01:45:52;;;;;;;9.02;3.53;;;;;;;16.83;100.00;97637.91;5022282;28;20470;-76
2023/09/01 01:48:17;;;;;;;11.88;4.20;;;;;;;16.88;100.00;97632.97;5056296;27;20033;-76
2023/09/01 01:50:43;;;;;;;10.27;3.30;;;;;;;16.83;100.00;97646.84;5031349;28;20407;-76
2023/09/01 01:53:08;;;;;;;10.63;3.85;;;;;;;16.83;100.00;97629.81;5035245;28;20509;-76
2023/09/01 01:55:34;;;;;;;8.60;3.90;;;;;;;16.78;100.00;97633.75;5011588;28;20040;-75
2023/09/01 01:58:00;;;;;;;8.27;3.25;;;;;;;16.63;100.00;97632.34;5029105;28;20033;-76
2023/09/01 02:00:29;;;;;;;10.50;3.85;;;;;;;16.52;100.00;97632.34;5040059;28;20052;-77
2023/09/01 02:02:55;;;;;;;6.68;3.78;;;;;;;16.52;100.00;97635.06;5047976;28;20530;-75
2023/09/01 02:05:20;;;;;;;7.45;3.40;;;;;;;16.47;100.00;97636.44;5031177;28;20033;-77
2023/09/01 02:07:46;;;;;;;17.90;4.90;;;;;;;16.43;100.00;97632.28;5031172;28;20047;-77
2023/09/01 02:10:11;;;;;;;9.73;3.88;;;;;;;16.39;100.00;97631.69;5031224;28;20029;-75
2023/09/01 02:12:37;;;;;;;4.53;3.40;;;;;;;16.40;100.00;97630.69;5047355;28;20521;-76
2023/09/01 02:15:08;;;;;;;6.93;3.53;;;;;;;16.46;100.00;97632.00;5047582;28;20049;-76
2023/09/01 02:17:37;;;;;;;9.40;3.97;;;;;;;16.47;100.00;97637.31;5040627;28;20033;-76
2023/09/01 02:20:16;;;;;;;10.23;3.83;;;;;;;16.52;100.00;97637.75;5027599;28;20456;-77
2023/09/01 02:22:45;;;;;;;8.30;3.70;;;;;;;16.46;100.00;97634.72;5030495;28;20029;-76
2023/09/01 02:25:12;;;;;;;10.40;3.65;;;;;;;16.43;100.00;97633.13;5010995;28;20075;-76
2023/09/01 02:27:40;;;;;;;15.15;4.78;;;;;;;16.39;100.00;97637.09;5027499;28;20381;-76
2023/09/01 02:30:08;;;;;;;12.73;3.60;;;;;;;16.30;100.00;97637.88;5024950;28;20040;-76
2023/09/01 02:32:33;;;;;;;14.98;4.15;;;;;;;16.30;100.00;97632.47;5046960;28;20045;-76
2023/09/01 02:35:00;;;;;;;25.10;4.85;;;;;;;16.25;100.00;97632.84;5047377;28;20044;-76
2023/09/01 02:37:26;;;;;;;19.98;4.40;;;;;;;16.24;100.00;97623.00;5030762;28;20448;-76
2023/09/01 02:39:51;;;;;;;16.20;4.20;;;;;;;16.29;100.00;97630.75;5021523;28;20021;-75
2023/09/01 02:42:17;;;;;;;7.90;4.97;;;;;;;16.34;100.00;97631.22;5027485;28;20028;-76
2023/09/01 02:44:42;;;;;;;6.97;4.85;;;;;;;16.43;100.00;97637.66;5010637;28;20407;-76
2023/09/01 02:47:08;;;;;;;10.55;4.93;;;;;;;16.44;100.00;97632.16;5027236;28;20082;-77
2023/09/01 02:49:34;;;;;;;7.55;3.92;;;;;;;16.47;100.00;97636.44;5027364;28;20116;-76
2023/09/01 02:51:59;;;;;;;9.10;3.97;;;;;;;16.43;100.00;97635.84;5027181;28;20078;-76
2023/09/01 02:54:25;;;;;;;7.85;4.07;;;;;;;16.34;100.00;97628.50;5010501;28;20029;-75
2023/09/01 02:56:50;;;;;;;8.63;4.07;;;;;;;16.31;100.00;97636.88;5043370;27;20069;-75
2023/09/01 02:59:16;;;;;;;12.05;4.20;;;;;;;16.28;100.00;97635.28;5040408;28;20024;-76
2023/09/01 03:01:41;;;;;;;7.70;3.90;;;;;;;16.24;100.00;97633.81;5023398;28;20124;-76
2023/09/01 03:04:07;;;;;;;6.18;3.70;;;;;;;16.21;100.00;97635.94;5046726;28;20021;-75
2023/09/01 03:06:35;;;;;;;56.50;10.52;;;;;;;16.18;100.00;97636.19;5046189;28;20135;-76
2023/09/01 03:09:02;;;;;;;37.92;9.63;;;;;;;16.18;100.00;97636.19;5047628;28;20456;-76
2023/09/01 03:11:28;;;;;;;30.75;7.32;;;;;;;16.19;100.00;97629.78;5032484;28;20044;-75
2023/09/01 03:13:53;;;;;;;32.70;9.90;;;;;;;16.17;100.00;97642.56;5026784;28;20029;-75
2023/09/01 03:16:19;;;;;;;18.00;4.80;;;;;;;16.09;100.00;97637.78;5027320;28;20033;-75
2023/09/01 03:18:44;;;;;;;10.15;5.15;;;;;;;15.98;100.00;97635.13;5026624;28;20060;-75
2023/09/01 03:21:12;;;;;;;11.35;4.43;;;;;;;15.97;100.00;97640.63;5028741;28;20052;-75
2023/09/01 03:23:37;;;;;;;10.18;4.22;;;;;;;15.84;100.00;97632.72;5045926;28;20476;-76
2023/09/01 03:26:05;;;;;;;18.35;5.07;;;;;;;15.85;100.00;97644.34;5029976;28;20181;-76
2023/09/01 03:28:31;;;;;;;12.25;4.82;;;;;;;15.88;100.00;97641.38;5030338;28;20017;-75
2023/09/01 03:30:57;;;;;;;20.75;4.68;;;;;;;15.86;100.00;97641.53;5046299;28;20179;-76
2023/09/01 03:33:23;;;;;;;9.13;3.80;;;;;;;15.83;100.00;97635.53;5047734;28;20140;-76
2023/09/01 03:35:49;;;;;;;15.23;4.28;;;;;;;15.80;100.00;97643.88;5020285;28;20037;-77
2023/09/01 03:38:14;;;;;;;16.77;3.30;;;;;;;15.65;100.00;97648.66;5029643;28;20033;-76
2023/09/01 03:40:40;;;;;;;9.48;3.47;;;;;;;15.54;100.00;97643.25;5046673;28;20033;-76
2023/09/01 03:43:07;;;;;;;14.10;4.80;;;;;;;15.53;100.00;97649.66;5046038;28;20021;-75
2023/09/01 03:45:32;;;;;;;6.55;3.70;;;;;;;15.45;100.00;97652.91;5042181;28;20040;-75
2023/09/01 03:47:58;;;;;;;7.10;3.97;;;;;;;15.49;100.00;97654.44;5009635;28;20025;-74
2023/09/01 03:50:23;;;;;;;15.98;4.13;;;;;;;15.44;100.00;97659.28;5026227;28;20021;-76
2023/09/01 03:52:49;;;;;;;24.67;6.43;;;;;;;15.48;100.00;97666.19;5026284;28;20401;-76
2023/09/01 03:55:14;;;;;;;12.68;6.05;;;;;;;15.52;100.00;97661.41;5009407;28;20452;-76
2023/09/01 03:57:40;;;;;;;11.35;5.70;;;;;;;15.57;100.00;97664.59;5026174;28;20037;-75
2023/09/01 04:00:09;;;;;;;10.68;4.97;;;;;;;15.54;100.00;97667.53;5009852;28;20025;-76
2023/09/01 04:02:35;;;;;;;17.50;6.95;;;;;;;15.50;100.00;97666.94;5040696;28;20025;-75
2023/09/01 04:05:01;;;;;;;9.40;5.18;;;;;;;15.55;100.00;97680.03;5029402;28;20035;-75
2023/09/01 04:07:26;;;;;;;16.88;5.45;;;;;;;15.52;100.00;97675.75;5047143;28;20033;-75
2023/09/01 04:09:52;;;;;;;26.83;9.18;;;;;;;15.50;100.00;97675.03;5046915;28;20025;-76
2023/09/01 04:12:17;;;;;;;17.40;5.85;;;;;;;15.60;100.00;97680.53;5039067;28;20464;-75
2023/09/01 04:14:43;;;;;;;9.30;4.25;;;;;;;15.57;100.00;97678.06;5032835;28;20057;-76
2023/09/01 04:17:08;;;;;;;7.85;4.20;;;;;;;15.51;100.00;97671.34;5010796;28;20036;-75
2023/09/01 04:19:34;;;;;;;7.28;4.65;;;;;;;15.41;100.00;97670.31;5027833;28;20029;-72
2023/09/01 04:21:59;;;;;;;7.78;4.78;;;;;;;15.44;100.00;97671.94;5037275;28;20017;-73
2023/09/01 04:24:25;;;;;;;10.88;5.10;;;;;;;15.49;100.00;97678.69;5012657;28;20067;-72
2023/09/01 04:26:50;;;;;;;12.05;5.20;;;;;;;15.57;100.00;97681.63;5020940;28;20108;-71
2023/09/01 04:29:17;;;;;;;10.05;4.78;;;;;;;15.76;100.00;97688.25;5028902;28;20032;-73
2023/09/01 04:31:43;;;;;;;7.40;4.60;;;;;;;15.84;100.00;97689.38;5045534;28;20021;-72
2023/09/01 04:34:10;;;;;;;10.98;4.45;;;;;;;16.02;100.00;97697.81;5035555;28;20076;-73
2023/09/01 04:36:36;;;;;;;9.10;5.40;;;;;;;16.11;100.00;97697.06;5028900;28;20492;-73
2023/09/01 04:39:04;;;;;;;10.63;5.32;;;;;;;16.23;100.00;97696.03;5035955;28;20032;-72
2023/09/01 04:41:31;;;;;;;14.65;5.07;;;;;;;16.36;100.00;97696.75;5039597;28;20208;-72
2023/09/01 04:43:58;;;;;;;38.13;8.63;;;;;;;16.45;100.00;97690.59;5048923;28;20028;-72
2023/09/01 04:46:23;;;;;;;15.55;6.28;;;;;;;16.51;100.00;97692.78;5047377;28;20439;-72
2023/09/01 04:48:49;;;;;;;15.65;5.65;;;;;;;16.59;100.00;97694.84;5039224;28;20033;-72
2023/09/01 04:51:14;;;;;;;10.68;5.68;;;;;;;16.50;100.00;97687.50;5022139;28;20108;-72
2023/09/01 04:53:41;;;;;;;13.60;6.30;;;;;;;16.55;100.00;97696.13;5033694;28;20040;-71
2023/09/01 04:56:06;;;;;;;9.77;5.70;;;;;;;16.52;100.00;97696.34;5044589;28;20135;-72
2023/09/01 04:58:32;;;;;;;53.90;8.35;;;;;;;16.63;100.00;97691.78;5020360;28;20046;-71
2023/09/01 05:00:57;;;;;;;34.78;7.50;;;;;;;16.76;100.00;97688.91;5018938;28;20060;-72
2023/09/01 05:03:23;;;;;;;15.80;6.63;;;;;;;16.93;100.00;97691.03;5033876;28;20437;-72
2023/09/01 05:05:49;;;;;;;7.95;5.03;;;;;;;17.01;100.00;97693.91;5046637;28;20048;-72
2023/09/01 05:08:16;;;;;;;30.52;7.80;;;;;;;17.06;100.00;97698.94;5048583;28;20085;-73
2023/09/01 05:10:42;;;;;;;27.67;8.05;;;;;;;17.19;100.00;97697.78;5041015;28;20025;-72
2023/09/01 05:13:07;;;;;;;18.38;7.00;;;;;;;17.34;100.00;97696.44;5032678;28;20036;-72
2023/09/01 05:15:33;;;;;;;41.00;9.65;;;;;;;17.32;100.00;97701.09;5020118;28;20025;-73
2023/09/01 05:17:58;;;;;;;24.38;8.13;;;;;;;17.51;100.00;97703.06;5028310;28;20430;-72
2023/09/01 05:20:24;;;;;;;15.07;5.53;;;;;;;17.52;100.00;97704.78;5036841;28;20021;-72
2023/09/01 05:22:49;;;;;;;20.23;7.82;;;;;;;17.63;100.00;97696.59;5036539;28;20026;-73
2023/09/01 05:25:15;;;;;;;12.27;6.22;;;;;;;17.76;100.00;97697.25;5028399;28;20025;-72
2023/09/01 05:27:41;;;;;;;12.25;4.78;;;;;;;17.84;100.00;97697.41;5036309;28;20035;-73
2023/09/01 05:30:08;;;;;;;8.68;4.63;;;;;;;17.99;100.00;97706.03;5044395;28;20377;-73
2023/09/01 05:32:34;;;;;;;10.45;5.13;;;;;;;18.41;100.00;97707.59;5029342;28;20037;-73
2023/09/01 05:34:59;;;;;;;15.90;5.43;;;;;;;19.91;100.00;97701.50;5030141;28;20036;-72
2023/09/01 05:37:25;;;;;;;23.90;5.50;;;;;;;21.23;100.00;97706.38;5047671;28;20028;-71
2023/09/01 05:39:50;;;;;;;21.88;5.53;;;;;;;22.52;100.00;97691.69;5044317;28;20074;-74
2023/09/01 05:42:16;;;;;;;18.90;5.50;;;;;;;23.28;100.00;97682.47;5045808;28;20345;-73
2023/09/01 05:44:41;;;;;;;11.95;5.38;;;;;;;23.94;100.00;97688.53;5011480;28;20029;-73
2023/09/01 05:47:07;;;;;;;16.67;4.55;;;;;;;24.57;100.00;97673.97;5028019;28;20018;-72
2023/09/01 05:49:33;;;;;;;19.67;4.95;;;;;;;24.25;100.00;97686.75;5027975;28;20474;-73
2023/09/01 05:52:00;;;;;;;12.68;4.88;;;;;;;24.15;100.00;97705.25;5038663;28;20480;-73
2023/09/01 05:54:26;;;;;;;17.15;5.72;;;;;;;24.62;100.00;97705.22;5049779;28;20026;-73
2023/09/01 05:56:52;;;;;;;9.85;5.20;;;;;;;24.08;100.00;97706.97;5037163;28;20029;-73
2023/09/01 05:59:17;;;;;;;21.80;4.93;;;;;;;24.70;100.00;97709.81;5011413;28;20025;-73
2023/09/01 06:01:44;;;;;;;20.25;9.60;;;;;;;24.40;100.00;97713.34;5011250;28;20388;-73
2023/09/01 06:04:09;;;;;;;20.40;11.25;;;;;;;24.15;100.00;97707.97;5027949;28;20626;-73
2023/09/01 06:06:35;;;;;;;18.35;9.48;;;;;;;24.32;100.00;97714.25;5027807;28;20115;-73
2023/09/01 06:09:05;;;;;;;16.88;8.18;;;;;;;24.59;100.00;97708.31;5027428;28;20495;-73
2023/09/01 06:11:31;;;;;;;11.95;7.50;;;;;;;25.15;100.00;97711.78;5010968;28;20065;-73
2023/09/01 06:13:57;;;;;;;11.93;7.13;;;;;;;25.82;100.00;97699.06;5027087;28;20025;-73
2023/09/01 06:16:23;;;;;;;23.83;8.20;;;;;;;26.62;94.05;97689.06;5028962;28;20031;-74
2023/09/01 06:18:48;;;;;;;18.50;6.95;;;;;;;26.90;90.99;97694.69;5035497;28;20072;-74
2023/09/01 06:21:17;;;;;;;13.52;6.25;;;;;;;27.07;88.04;97700.81;5046708;28;20025;-74
2023/09/01 06:23:44;;;;;;;16.65;6.07;;;;;;;27.01;89.44;97701.59;5030953;28;20382;-75
2023/09/01 06:26:20;;;;;;;14.30;5.38;;;;;;;26.60;89.35;97693.03;5027411;28;20108;-74
2023/09/01 06:28:46;;;;;;;8.82;5.63;;;;;;;26.19;94.73;97707.25;5027444;28;20108;-75
2023/09/01 06:31:13;;;;;;;9.85;5.15;;;;;;;26.36;93.24;97700.53;5027137;28;20132;-72
2023/09/01 06:33:44;;;;;;;11.27;4.65;;;;;;;26.22;94.68;97711.50;5027289;28;20077;-73
2023/09/01 06:36:12;;;;;;;12.23;4.07;;;;;;;27.56;86.92;97700.91;5011977;28;20500;-73
2023/09/01 06:38:39;;;;;;;30.08;9.75;;;;;;;28.72;76.97;97698.34;5010947;28;20030;-72
2023/09/01 06:41:04;;;;;;;12.45;5.43;;;;;;;29.04;72.90;97709.47;5009626;28;20120;-71
2023/09/01 06:43:30;;;;;;;11.13;5.28;;;;;;;29.14;71.53;97709.09;5037556;28;20161;-70
2023/09/01 06:45:56;;;;;;;13.27;4.25;;;;;;;29.13;70.30;97712.06;5010170;28;20033;-72
2023/09/01 06:48:22;;;;;;;154.13;11.63;;;;;;;30.02;65.42;97714.31;5059997;28;20022;-71
2023/09/01 06:50:47;;;;;;;11.20;3.90;;;;;;;30.69;60.41;97693.84;5028550;28;20030;-72
2023/09/01 06:53:13;;;;;;;18.42;4.38;;;;;;;30.78;59.69;97698.06;5029349;28;20085;-72
2023/09/01 06:55:38;;;;;;;17.63;4.13;;;;;;;30.76;60.91;97700.19;5046551;28;20056;-72
2023/09/01 06:58:05;;;;;;;12.32;4.63;;;;;;;31.10;58.26;97699.00;5046450;28;20021;-71
2023/09/01 07:00:30;;;;;;;10.57;4.72;;;;;;;31.50;56.51;97697.69;5042776;28;20120;-72
2023/09/01 07:02:56;;;;;;;21.65;5.65;;;;;;;31.62;56.10;97695.91;5019116;28;20056;-72
2023/09/01 07:05:22;;;;;;;9.07;4.60;;;;;;;31.09;56.21;97702.81;5046609;28;20024;-71
2023/09/01 07:07:47;;;;;;;9.60;4.00;;;;;;;31.86;54.25;97699.78;5046497;28;20036;-71
2023/09/01 07:10:13;;;;;;;15.10;4.30;;;;;;;31.13;55.42;97702.16;5036817;28;20090;-71
2023/09/01 07:12:38;;;;;;;11.85;4.38;;;;;;;31.14;56.51;97703.00;5033934;28;20029;-72
2023/09/01 07:15:04;;;;;;;11.02;4.40;;;;;;;31.09;56.81;97705.59;5039304;28;20026;-72
2023/09/01 07:17:30;;;;;;;8.80;4.85;;;;;;;31.99;53.22;97709.88;5026661;28;20498;-72
2023/09/01 07:19:55;;;;;;;26.40;6.75;;;;;;;32.26;52.67;97713.28;5041897;28;20024;-72
2023/09/01 07:22:21;;;;;;;8.85;4.47;;;;;;;31.40;54.42;97716.69;5009890;28;20026;-72
2023/09/01 07:24:46;;;;;;;9.73;4.32;;;;;;;31.99;52.11;97726.50;5010272;28;20462;-72
2023/09/01 07:27:12;;;;;;;14.57;4.07;;;;;;;32.33;51.93;97720.47;5009804;28;20025;-72
2023/09/01 07:29:37;;;;;;;27.70;4.22;;;;;;;33.00;49.07;97722.28;5027373;28;20474;-72
2023/09/01 07:32:03;;;;;;;7.28;3.33;;;;;;;32.18;50.20;97719.94;5026227;28;20034;-72
2023/09/01 07:34:29;;;;;;;9.07;3.70;;;;;;;33.30;48.03;97727.88;5009758;28;20053;-72
2023/09/01 07:36:55;;;;;;;7.07;3.80;;;;;;;32.32;49.08;97716.00;5026457;28;20120;-73
2023/09/01 07:39:20;;;;;;;7.25;3.55;;;;;;;32.21;51.41;97727.81;5026114;28;20112;-73
2023/09/01 07:41:46;;;;;;;7.57;3.42;;;;;;;32.84;49.06;97716.50;5026464;28;20030;-73
2023/09/01 07:44:16;;;;;;;4.57;3.22;;;;;;;33.29;47.99;97715.06;5027416;28;20026;-73
2023/09/01 07:46:42;;;;;;;6.28;3.38;;;;;;;32.75;46.73;97710.44;5030218;28;20119;-73
2023/09/01 07:49:08;;;;;;;6.57;3.45;;;;;;;32.46;47.49;97714.75;5029170;28;20533;-73
2023/09/01 07:51:34;;;;;;;5.45;3.63;;;;;;;33.41;46.02;97710.41;5043024;28;20029;-72
2023/09/01 07:53:59;;;;;;;4.88;3.55;;;;;;;32.45;48.23;97715.88;5012429;28;20059;-73
2023/09/01 07:56:25;;;;;;;7.55;3.40;;;;;;;32.75;47.24;97710.44;5029366;28;20401;-73
2023/09/01 07:58:51;;;;;;;7.28;3.00;;;;;;;34.14;42.93;97701.84;5029764;28;20100;-73
2023/09/01 08:01:17;;;;;;;9.30;3.33;;;;;;;34.87;40.59;97692.97;5047569;28;20025;-73
2023/09/01 08:03:42;;;;;;;6.30;3.70;;;;;;;35.48;39.23;97683.94;5050703;28;20112;-72
2023/09/01 08:06:08;;;;;;;4.28;3.10;;;;;;;35.49;39.14;97692.06;5049220;28;20472;-72
2023/09/01 08:08:34;;;;;;;10.68;3.42;;;;;;;36.39;38.22;97690.03;5047089;28;20082;-73
2023/09/01 08:10:59;;;;;;;6.70;3.05;;;;;;;35.83;38.10;97693.84;5030766;28;20022;-72
2023/09/01 08:13:26;;;;;;;4.20;3.47;;;;;;;35.60;37.94;97685.59;5028994;28;20020;-73
2023/09/01 08:15:51;;;;;;;6.32;3.35;;;;;;;35.54;38.54;97678.22;5013105;28;20037;-74
2023/09/01 08:18:17;;;;;;;8.65;3.70;;;;;;;35.81;38.61;97678.44;5045478;28;20032;-72
2023/09/01 08:20:43;;;;;;;11.68;3.67;;;;;;;35.97;38.81;97683.19;5045767;28;20029;-72
2023/09/01 08:23:10;;;;;;;8.35;3.47;;;;;;;36.46;37.54;97675.91;5037371;28;20016;-72
2023/09/01 08:25:36;;;;;;;5.70;3.47;;;;;;;37.21;36.94;97680.88;5032715;28;20116;-73
2023/09/01 08:28:03;;;;;;;6.63;3.28;;;;;;;37.00;37.03;97674.22;5048679;28;20448;-72
2023/09/01 08:30:29;;;;;;;6.35;4.63;;;;;;;37.28;36.06;97667.56;5038156;28;20052;-73
2023/09/01 08:32:54;;;;;;;3.83;3.30;;;;;;;37.71;35.25;97664.69;5012308;28;20073;-73
2023/09/01 08:35:20;;;;;;;4.72;3.72;;;;;;;37.78;35.12;97661.66;5028985;28;20039;-73
2023/09/01 08:37:45;;;;;;;7.13;3.08;;;;;;;37.45;35.37;97659.94;5012609;28;20044;-73
2023/09/01 08:40:11;;;;;;;6.60;3.50;;;;;;;37.81;34.99;97652.78;5028946;28;20112;-73
2023/09/01 08:42:46;;;;;;;7.80;3.85;;;;;;;38.32;34.18;97651.22;5045293;28;20020;-73
2023/09/01 08:45:14;;;;;;;5.25;3.70;;;;;;;38.51;34.07;97652.50;5028917;28;20124;-73
2023/09/01 08:47:47;;;;;;;5.07;3.10;;;;;;;38.10;33.87;97644.91;5012439;28;20040;-72
2023/09/01 08:50:13;;;;;;;7.20;3.33;;;;;;;38.18;33.74;97647.22;5012402;28;20052;-72
2023/09/01 08:52:45;;;;;;;6.05;3.30;;;;;;;36.86;34.97;97640.22;5012050;28;20033;-71
2023/09/01 08:55:15;;;;;;;3.70;3.30;;;;;;;38.13;33.45;97652.75;5028775;28;20036;-73
2023/09/01 08:57:41;;;;;;;3.30;3.00;;;;;;;39.22;32.07;97642.50;5031621;28;20112;-73
2023/09/01 09:00:08;;;;;;;4.35;3.00;;;;;;;39.21;31.75;97639.94;5048616;28;20116;-72
2023/09/01 09:02:44;;;;;;;4.15;3.30;;;;;;;38.32;32.69;97643.69;5047861;28;20021;-73
2023/09/01 09:05:13;;;;;;;5.30;3.88;;;;;;;38.94;31.71;97642.94;5047626;28;20480;-73
2023/09/01 09:07:38;;;;;;;7.22;3.05;;;;;;;39.37;31.52;97636.97;5048470;28;20100;-72
2023/09/01 09:10:06;;;;;;;14.95;3.58;;;;;;;40.03;30.89;97643.47;5048595;28;20523;-72
2023/09/01 09:12:35;;;;;;;3.33;3.03;;;;;;;40.59;30.02;97640.63;5049512;28;20124;-73
2023/09/01 09:15:01;;;;;;;3.78;3.08;;;;;;;39.58;30.52;97642.59;5045318;28;20033;-73
2023/09/01 09:17:45;;;;;;;8.20;3.22;;;;;;;39.46;30.98;97640.03;5031837;28;20029;-71
2023/09/01 09:20:12;;;;;;;28.52;3.53;;;;;;;39.72;30.97;97633.38;5048297;28;20025;-73
2023/09/01 09:22:57;;;;;;;20.40;4.25;;;;;;;39.41;31.07;97628.84;5048248;28;20472;-73
2023/09/01 09:25:33;;;;;;;6.88;2.80;;;;;;;39.56;30.35;97626.88;5048119;28;20036;-74
2023/09/01 09:28:00;;;;;;;4.78;3.25;;;;;;;38.87;30.96;97623.59;5031436;28;20503;-73
2023/09/01 09:30:26;;;;;;;5.80;3.30;;;;;;;39.12;31.48;97627.59;5048100;28;20147;-73
2023/09/01 09:33:05;;;;;;;7.30;3.92;;;;;;;39.35;31.23;97630.78;5031091;28;20045;-72
2023/09/01 09:35:34;;;;;;;7.07;3.00;;;;;;;39.26;30.83;97620.38;5031349;28;20063;-72
2023/09/01 09:38:02;;;;;;;7.70;3.03;;;;;;;40.30;29.36;97615.13;5032219;28;20040;-74
2023/09/01 09:40:28;;;;;;;12.27;3.78;;;;;;;40.38;29.80;97610.94;5028234;28;20029;-73
2023/09/01 09:42:58;;;;;;;3.50;3.20;;;;;;;40.88;29.30;97616.41;5029693;28;20029;-73
2023/09/01 09:45:28;;;;;;;4.28;3.58;;;;;;;39.32;30.34;97611.72;5027996;28;20399;-73
2023/09/01 09:47:55;;;;;;;3.35;3.05;;;;;;;40.23;29.43;97609.00;5011494;28;20082;-73
2023/09/01 09:50:21;;;;;;;3.38;2.97;;;;;;;40.39;28.91;97601.41;5010972;28;20037;-73
2023/09/01 09:52:49;;;;;;;3.30;2.65;;;;;;;40.49;28.70;97601.34;5027634;28;20030;-73
2023/09/01 09:55:32;;;;;;;5.47;2.30;;;;;;;40.28;28.52;97603.38;5010918;28;20033;-73
2023/09/01 09:58:05;;;;;;;5.70;2.85;;;;;;;40.15;29.00;97592.72;5011281;28;20104;-72
2023/09/01 10:00:36;;;;;;;3.17;2.30;;;;;;;38.98;29.16;97597.31;5027026;28;20090;-72
2023/09/01 10:03:03;;;;;;;7.07;2.85;;;;;;;39.68;29.42;97600.59;5010885;28;20021;-72
2023/09/01 10:05:33;;;;;;;4.47;2.83;;;;;;;40.39;28.47;97601.41;5011343;28;20124;-72
2023/09/01 10:08:02;;;;;;;3.50;2.65;;;;;;;40.28;28.57;97597.75;5027641;28;20104;-72
2023/09/01 10:10:28;;;;;;;2.90;2.60;;;;;;;40.49;28.16;97601.34;5011349;28;20116;-72
2023/09/01 10:12:53;;;;;;;3.03;2.70;;;;;;;38.21;30.79;97593.56;5027347;28;20109;-73
2023/09/01 10:15:19;;;;;;;7.53;2.72;;;;;;;36.92;32.35;97594.53;5027173;28;20037;-73
2023/09/01 10:17:46;;;;;;;3.97;2.83;;;;;;;38.06;31.23;97599.03;5012293;28;20075;-71
2023/09/01 10:20:12;;;;;;;3.38;2.80;;;;;;;39.14;30.56;97594.56;5047084;28;20120;-74
2023/09/01 10:22:41;;;;;;;5.10;2.88;;;;;;;39.84;28.98;97582.69;5046673;28;20108;-73
2023/09/01 10:25:13;;;;;;;5.68;2.55;;;;;;;39.48;29.55;97584.56;5027279;28;20441;-74
2023/09/01 10:28:05;;;;;;;3.55;2.47;;;;;;;40.63;28.53;97588.44;5039899;28;20120;-73
2023/09/01 10:30:41;;;;;;;2.90;2.55;;;;;;;40.69;27.82;97594.88;5030584;28;20029;-74
2023/09/01 10:33:25;;;;;;;2.58;2.38;;;;;;;40.59;28.35;97584.53;5046669;28;20049;-73
2023/09/01 10:35:53;;;;;;;7.00;2.80;;;;;;;39.47;29.42;97580.13;5047065;28;20043;-73
2023/09/01 10:38:18;;;;;;;5.00;2.42;;;;;;;40.88;28.58;97579.91;5046858;28;20104;-73
2023/09/01 10:40:48;;;;;;;3.45;2.60;;;;;;;40.39;28.15;97570.53;5048092;28;20119;-73
2023/09/01 10:43:34;;;;;;;3.38;3.00;;;;;;;40.56;27.82;97559.84;5046949;28;20066;-73
2023/09/01 10:46:14;;;;;;;17.77;5.40;;;;;;;40.57;27.99;97567.13;5037611;28;20100;-73
2023/09/01 10:48:59;;;;;;;17.77;4.68;;;;;;;40.08;28.60;97561.34;5048375;28;20036;-73
2023/09/01 10:51:39;;;;;;;4.00;3.45;;;;;;;37.86;30.70;97561.44;5030013;28;20046;-73
2023/09/01 10:54:14;;;;;;;5.63;2.88;;;;;;;38.96;29.41;97562.34;5047787;28;20476;-73
2023/09/01 10:56:56;;;;;;;3.10;2.55;;;;;;;37.38;30.12;97558.75;5047883;28;20104;-72
2023/09/01 10:59:30;;;;;;;2.67;2.47;;;;;;;38.38;29.98;97558.75;5029968;28;20025;-73
2023/09/01 11:01:55;;;;;;;10.27;2.85;;;;;;;39.36;28.66;97554.03;5046561;28;20472;-73
2023/09/01 11:04:21;;;;;;;5.63;2.63;;;;;;;38.98;28.91;97552.53;5046349;28;20085;-74
2023/09/01 11:06:59;;;;;;;3.60;3.00;;;;;;;39.03;28.78;97558.19;5047766;28;20029;-73
2023/09/01 11:09:34;;;;;;;2.72;2.40;;;;;;;38.52;29.45;97541.47;5047568;28;20135;-71
2023/09/01 11:12:07;;;;;;;2.50;2.20;;;;;;;39.35;28.33;97545.91;5047791;28;20028;-72
2023/09/01 11:14:34;;;;;;;4.00;2.22;;;;;;;37.60;30.47;97544.75;5046441;28;20040;-71
2023/09/01 11:17:00;;;;;;;3.08;2.40;;;;;;;36.40;31.35;97548.69;5062922;28;20024;-72
2023/09/01 11:19:26;;;;;;;4.75;2.58;;;;;;;37.52;30.28;97550.81;5046286;28;20397;-72
2023/09/01 11:21:52;;;;;;;3.80;2.55;;;;;;;39.07;29.15;97541.63;5046279;28;20031;-72
2023/09/01 11:24:21;;;;;;;3.25;2.40;;;;;;;39.00;28.39;97532.69;5046457;28;20389;-72
2023/09/01 11:26:49;;;;;;;2.60;2.40;;;;;;;40.27;27.44;97513.94;5046318;28;20059;-72